Time;durP1;ratioP1;P1;durP2;ratioP2;P2;SDS_P1;SDS_P2;PMS_P1;PMS_P2;Temp;Humidity;BMP_temperature;BMP_pressure;BME280_temperature;BME280_humidity;BME280_pressure;Samples;Min_cycle;Max_cycle;Signal;HPM_P1;HPM_P2
2022/04/17 00:02:21;;;;;;;;;;;21.50;47.30;;;;;;5093592;28;19982;-49
2022/04/17 00:04:49;;;;;;;;;;;21.50;47.30;;;;;;5093902;28;19924;-49
2022/04/17 00:07:16;;;;;;;;;;;21.50;47.30;;;;;;5093872;28;19969;-49
2022/04/17 00:09:43;;;;;;;;;;;21.50;47.30;;;;;;5092984;28;19925;-50
2022/04/17 00:12:11;;;;;;;;;;;21.50;47.30;;;;;;5093357;28;19947;-50
2022/04/17 00:14:38;;;;;;;;;;;21.50;47.30;;;;;;5093763;28;19975;-47
2022/04/17 00:17:05;;;;;;;;;;;21.50;47.30;;;;;;5093461;28;19925;-44
2022/04/17 00:19:32;;;;;;;;;;;21.50;47.30;;;;;;5093419;28;19924;-48
2022/04/17 00:21:59;;;;;;;;;;;21.50;47.30;;;;;;5093542;28;19928;-51
2022/04/17 00:24:27;;;;;;;;;;;21.50;47.30;;;;;;5074428;28;19970;-50
2022/04/17 00:26:54;;;;;;;;;;;21.50;47.30;;;;;;5093280;28;20425;-48
2022/04/17 00:29:21;;;;;;;;;;;21.50;47.30;;;;;;5073858;28;19928;-52
2022/04/17 00:31:48;;;;;;;;;;;21.50;47.30;;;;;;5073876;28;20360;-53
2022/04/17 00:34:15;;;;;;;;;;;21.50;47.30;;;;;;5073425;28;19993;-51
2022/04/17 00:36:42;;;;;;;;;;;21.50;47.30;;;;;;5073141;28;19924;-52
2022/04/17 00:39:09;;;;;;;;;;;21.50;47.30;;;;;;5074092;28;19929;-53
2022/04/17 00:41:36;;;;;;;;;;;21.50;47.40;;;;;;5093079;28;20288;-51
2022/04/17 00:44:10;;;;;;;;;;;21.50;47.30;;;;;;5093517;28;19981;-52
2022/04/17 00:46:40;;;;;;;;;;;21.50;47.40;;;;;;5093560;28;19928;-53
2022/04/17 00:49:08;;;;;;;;;;;21.50;47.30;;;;;;5093163;28;20276;-53
2022/04/17 00:51:36;;;;;;;;;;;21.50;47.40;;;;;;5093186;28;19924;-49
2022/04/17 00:54:07;;;;;;;;;;;21.50;47.40;;;;;;5093124;28;19935;-53
2022/04/17 00:56:35;;;;;;;;;;;21.50;47.40;;;;;;5077225;28;20296;-45
2022/04/17 00:59:03;;;;;;;;;;;21.50;47.30;;;;;;5076328;28;19946;-53
2022/04/17 01:01:33;;;;;;;;;;;21.50;47.30;;;;;;5076336;28;19928;-52
2022/04/17 01:04:01;;;;;;;;;;;21.50;47.30;;;;;;5076590;28;20019;-48
2022/04/17 01:06:28;;;;;;;;;;;21.50;47.40;;;;;;5076597;28;19925;-45
2022/04/17 01:08:55;;;;;;;;;;;21.50;47.40;;;;;;5076224;28;20437;-48
2022/04/17 01:11:23;;;;;;;;;;;21.50;47.30;;;;;;5076332;28;19928;-51
2022/04/17 01:13:52;;;;;;;;;;;21.50;47.40;;;;;;5076439;28;19925;-52
2022/04/17 01:16:24;;;;;;;;;;;21.50;47.40;;;;;;5076102;28;19971;-51
2022/04/17 01:18:55;;;;;;;;;;;21.50;47.40;;;;;;5076372;28;20292;-45
2022/04/17 01:21:23;;;;;;;;;;;21.50;47.30;;;;;;5076120;28;19925;-48
2022/04/17 01:29:22;;;;;;;;;;;21.50;47.40;;;;;;5096337;28;19931;-45
2022/04/17 01:31:49;;;;;;;;;;;21.50;47.40;;;;;;5095960;28;19928;-47
2022/04/17 01:34:17;;;;;;;;;;;21.50;47.40;;;;;;5096308;28;19931;-46
2022/04/17 01:36:44;;;;;;;;;;;21.50;47.40;;;;;;5096248;28;20269;-51
2022/04/17 01:39:12;;;;;;;;;;;21.50;47.40;;;;;;5096202;28;19924;-50
2022/04/17 01:41:39;;;;;;;;;;;21.50;47.40;;;;;;5094893;28;20376;-47
2022/04/17 01:44:07;;;;;;;;;;;21.50;47.40;;;;;;5096126;28;19932;-45
2022/04/17 01:46:34;;;;;;;;;;;21.40;47.40;;;;;;5095769;28;19973;-44
2022/04/17 01:49:02;;;;;;;;;;;21.40;47.30;;;;;;5096050;28;20276;-48
2022/04/17 01:51:32;;;;;;;;;;;21.40;47.30;;;;;;5095717;28;19973;-44
2022/04/17 01:53:59;;;;;;;;;;;21.40;47.40;;;;;;5095477;28;19928;-48
2022/04/17 01:56:26;;;;;;;;;;;21.40;47.40;;;;;;5095047;28;19977;-46
2022/04/17 01:58:53;;;;;;;;;;;21.40;47.40;;;;;;5095333;28;19986;-49
2022/04/17 02:01:20;;;;;;;;;;;21.40;47.40;;;;;;5095252;28;19924;-49
2022/04/17 02:03:47;;;;;;;;;;;21.40;47.40;;;;;;5095701;28;19959;-47
2022/04/17 02:06:14;;;;;;;;;;;21.40;47.40;;;;;;5095071;28;20444;-50
2022/04/17 02:08:44;;;;;;;;;;;21.40;47.40;;;;;;5095478;28;20322;-51
2022/04/17 02:11:12;;;;;;;;;;;21.40;47.40;;;;;;5085265;28;20337;-45
2022/04/17 02:13:39;;;;;;;;;;;21.40;47.40;;;;;;5075290;28;19928;-46
2022/04/17 02:16:06;;;;;;;;;;;21.40;47.40;;;;;;5075802;28;19925;-45
2022/04/17 02:18:33;;;;;;;;;;;21.40;47.40;;;;;;5075191;28;19972;-46
2022/04/17 02:21:01;;;;;;;;;;;21.40;47.40;;;;;;5074609;28;19924;-44
2022/04/17 02:23:28;;;;;;;;;;;21.40;47.40;;;;;;5074582;28;19978;-45
2022/04/17 02:25:55;;;;;;;;;;;21.40;47.50;;;;;;5061950;28;19969;-44
2022/04/17 02:28:22;;;;;;;;;;;21.40;47.50;;;;;;5094845;28;19924;-46
2022/04/17 02:30:49;;;;;;;;;;;21.40;47.50;;;;;;5095082;28;19936;-45
2022/04/17 02:33:16;;;;;;;;;;;21.40;47.50;;;;;;5095143;28;19924;-44
2022/04/17 02:35:43;;;;;;;;;;;21.40;47.50;;;;;;5095090;28;19957;-49
2022/04/17 02:38:10;;;;;;;;;;;21.40;47.50;;;;;;5095085;28;19974;-44
2022/04/17 02:40:36;;;;;;;;;;;21.40;47.50;;;;;;5093935;28;19977;-44
2022/04/17 02:43:03;;;;;;;;;;;21.40;47.50;;;;;;5094471;28;19977;-44
2022/04/17 02:45:30;;;;;;;;;;;21.40;47.50;;;;;;5077017;28;19927;-46
2022/04/17 02:47:57;;;;;;;;;;;21.40;47.50;;;;;;5094888;28;19931;-52
2022/04/17 02:50:24;;;;;;;;;;;21.40;47.50;;;;;;5094426;28;19924;-54
2022/04/17 02:52:54;;;;;;;;;;;21.40;47.50;;;;;;5094406;28;19924;-53
2022/04/17 02:55:21;;;;;;;;;;;21.40;47.50;;;;;;5094220;28;19924;-51
2022/04/17 02:57:48;;;;;;;;;;;21.40;47.50;;;;;;5093603;28;19928;-52
2022/04/17 03:00:15;;;;;;;;;;;21.40;47.50;;;;;;5076451;28;19975;-52
2022/04/17 03:05:38;;;;;;;;;;;21.40;47.50;;;;;;5079044;28;20338;-53
2022/04/17 03:08:13;;;;;;;;;;;21.40;47.50;;;;;;5094304;28;19924;-51
2022/04/17 03:10:42;;;;;;;;;;;21.40;47.50;;;;;;5093693;28;19928;-52
2022/04/17 03:13:09;;;;;;;;;;;21.40;47.50;;;;;;5093812;28;19924;-50
2022/04/17 03:15:39;;;;;;;;;;;21.30;47.50;;;;;;5094121;28;19928;-52
2022/04/17 03:18:08;;;;;;;;;;;21.40;47.50;;;;;;5093457;28;19924;-53
2022/04/17 03:20:35;;;;;;;;;;;21.30;47.50;;;;;;5093957;28;19924;-50
2022/04/17 03:23:02;;;;;;;;;;;21.30;47.50;;;;;;5093962;28;19932;-53
2022/04/17 03:25:30;;;;;;;;;;;21.30;47.50;;;;;;5094300;28;19924;-50
2022/04/17 03:27:57;;;;;;;;;;;21.30;47.50;;;;;;5093229;28;20011;-44
2022/04/17 03:30:24;;;;;;;;;;;21.30;47.50;;;;;;5093906;28;20402;-49
2022/04/17 03:32:51;;;;;;;;;;;21.30;47.50;;;;;;5093810;28;19937;-46
2022/04/17 03:35:18;;;;;;;;;;;21.30;47.50;;;;;;5094160;28;19931;-45
2022/04/17 03:37:45;;;;;;;;;;;21.30;47.50;;;;;;5093822;28;20368;-50
2022/04/17 03:40:13;;;;;;;;;;;21.30;47.50;;;;;;5093815;28;19924;-48
2022/04/17 03:42:40;;;;;;;;;;;21.30;47.50;;;;;;5074879;28;20415;-51
2022/04/17 03:45:11;;;;;;;;;;;21.30;47.50;;;;;;5093730;28;19924;-46
2022/04/17 03:47:38;;;;;;;;;;;21.30;47.50;;;;;;5093783;28;19924;-49
2022/04/17 03:50:06;;;;;;;;;;;21.30;47.50;;;;;;5093667;28;19978;-52
2022/04/17 03:52:42;;;;;;;;;;;21.30;47.50;;;;;;5093521;28;19978;-53
2022/04/17 03:55:10;;;;;;;;;;;21.30;47.50;;;;;;5076749;28;19977;-51
2022/04/17 03:57:37;;;;;;;;;;;21.30;47.50;;;;;;5092976;28;20272;-52
2022/04/17 04:00:05;;;;;;;;;;;21.30;47.50;;;;;;5093812;28;19924;-53
2022/04/17 04:02:33;;;;;;;;;;;21.30;47.50;;;;;;5093781;28;19999;-51
2022/04/17 04:05:00;;;;;;;;;;;21.30;47.50;;;;;;5093366;28;19928;-52
2022/04/17 04:07:27;;;;;;;;;;;21.30;47.50;;;;;;5093561;28;20387;-54
2022/04/17 04:09:54;;;;;;;;;;;21.30;47.50;;;;;;5093551;28;19924;-52
2022/04/17 04:12:21;;;;;;;;;;;21.30;47.50;;;;;;5092829;28;19977;-52
2022/04/17 04:14:54;;;;;;;;;;;21.30;47.50;;;;;;5093853;28;19924;-53
2022/04/17 04:17:21;;;;;;;;;;;21.30;47.50;;;;;;5093456;28;20379;-50
2022/04/17 04:19:48;;;;;;;;;;;21.30;47.50;;;;;;5093553;28;19924;-46
2022/04/17 04:22:15;;;;;;;;;;;21.30;47.50;;;;;;5093446;28;19924;-49
2022/04/17 04:24:42;;;;;;;;;;;21.30;47.50;;;;;;5093402;28;19977;-47
2022/04/17 04:29:54;;;;;;;;;;;21.30;47.50;;;;;;5095269;28;19974;-51
2022/04/17 04:32:21;;;;;;;;;;;21.30;47.50;;;;;;5097417;28;20318;-51
2022/04/17 04:34:48;;;;;;;;;;;21.30;47.50;;;;;;5097144;28;19928;-45
2022/04/17 04:37:15;;;;;;;;;;;21.30;47.50;;;;;;5097415;28;19978;-45
2022/04/17 04:39:42;;;;;;;;;;;21.30;47.50;;;;;;5097341;28;19994;-48
2022/04/17 04:42:09;;;;;;;;;;;21.30;47.50;;;;;;5095883;28;19971;-46
2022/04/17 04:44:36;;;;;;;;;;;21.30;47.50;;;;;;5097299;28;19924;-45
2022/04/17 04:47:03;;;;;;;;;;;21.30;47.50;;;;;;5097215;28;19932;-47
2022/04/17 04:49:30;;;;;;;;;;;21.30;47.50;;;;;;5096860;28;19975;-46
2022/04/17 04:51:58;;;;;;;;;;;21.30;47.50;;;;;;5096647;28;19931;-48
2022/04/17 04:54:25;;;;;;;;;;;21.30;47.50;;;;;;5096778;28;19924;-49
2022/04/17 04:56:52;;;;;;;;;;;21.30;47.50;;;;;;5095855;28;20407;-48
2022/04/17 04:59:20;;;;;;;;;;;21.30;47.40;;;;;;5096409;28;19977;-47
2022/04/17 05:01:51;;;;;;;;;;;21.30;47.40;;;;;;5096413;28;19924;-45
2022/04/17 05:04:18;;;;;;;;;;;21.30;47.40;;;;;;5096954;28;19931;-50
2022/04/17 05:06:46;;;;;;;;;;;21.30;47.40;;;;;;5096349;28;19924;-49
2022/04/17 05:09:13;;;;;;;;;;;21.30;47.40;;;;;;5096565;28;19969;-48
2022/04/17 05:11:40;;;;;;;;;;;21.40;47.50;;;;;;5097236;28;19928;-49
2022/04/17 05:14:08;;;;;;;;;;;21.40;47.40;;;;;;5077916;28;19924;-52
2022/04/17 05:16:35;;;;;;;;;;;21.40;47.40;;;;;;5076072;28;19925;-46
2022/04/17 05:22:10;;;;;;;;;;;21.40;47.30;;;;;;5014145;28;19976;-51
2022/04/17 05:24:40;;;;;;;;;;;21.40;47.30;;;;;;5014413;28;19926;-48
2022/04/17 05:27:07;;;;;;;;;;;21.40;47.30;;;;;;5013975;28;19926;-49
2022/04/17 05:29:34;;;;;;;;;;;21.40;47.30;;;;;;5033594;28;19925;-51
2022/04/17 05:32:01;;;;;;;;;;;21.40;47.30;;;;;;5033023;28;19929;-48
2022/04/17 05:34:28;;;;;;;;;;;21.50;47.30;;;;;;5033770;28;19925;-45
2022/04/17 05:36:56;;;;;;;;;;;21.50;47.20;;;;;;5033695;28;19925;-44
2022/04/17 05:39:23;;;;;;;;;;;21.50;47.20;;;;;;5033802;28;20340;-47
2022/04/17 05:41:50;;;;;;;;;;;21.50;47.20;;;;;;5033066;28;19972;-49
2022/04/17 05:44:17;;;;;;;;;;;21.50;47.20;;;;;;5032735;28;19929;-45
2022/04/17 05:46:44;;;;;;;;;;;21.50;47.10;;;;;;5033775;28;19925;-45
2022/04/17 05:49:11;;;;;;;;;;;21.50;47.10;;;;;;5033258;28;20376;-49
2022/04/17 05:51:38;;;;;;;;;;;21.50;47.10;;;;;;5032875;28;19975;-51
2022/04/17 05:54:07;;;;;;;;;;;21.50;47.10;;;;;;5074934;28;19924;-50
2022/04/17 05:56:37;;;;;;;;;;;21.50;47.10;;;;;;5075337;28;19931;-45
2022/04/17 05:59:06;;;;;;;;;;;21.50;47.10;;;;;;5088821;28;20379;-45
2022/04/17 06:01:34;;;;;;;;;;;21.50;47.00;;;;;;5095314;28;19928;-48
2022/04/17 06:04:04;;;;;;;;;;;21.50;47.00;;;;;;5095457;28;20367;-47
2022/04/17 06:06:31;;;;;;;;;;;21.50;47.00;;;;;;5095316;28;20023;-52
2022/04/17 06:08:58;;;;;;;;;;;21.50;47.00;;;;;;5095350;28;20430;-52
2022/04/17 06:11:26;;;;;;;;;;;21.50;47.00;;;;;;5095103;28;19973;-52
2022/04/17 06:13:53;;;;;;;;;;;21.60;47.10;;;;;;5094267;28;20007;-45
2022/04/17 06:16:20;;;;;;;;;;;21.60;47.00;;;;;;5095120;28;19928;-50
2022/04/17 06:18:47;;;;;;;;;;;21.60;47.00;;;;;;5095163;28;20015;-50
2022/04/17 06:21:14;;;;;;;;;;;21.60;47.00;;;;;;5095318;28;19928;-46
2022/04/17 06:23:41;;;;;;;;;;;21.60;47.00;;;;;;5094827;28;19928;-45
2022/04/17 06:26:09;;;;;;;;;;;21.60;46.90;;;;;;5095026;28;19924;-45
2022/04/17 06:28:37;;;;;;;;;;;21.60;46.90;;;;;;5094313;28;19931;-44
2022/04/17 06:31:07;;;;;;;;;;;21.60;46.90;;;;;;5095235;28;19947;-44
2022/04/17 06:33:34;;;;;;;;;;;21.60;46.80;;;;;;5095054;28;19963;-44
2022/04/17 06:36:01;;;;;;;;;;;21.60;46.80;;;;;;5095014;28;19924;-46
2022/04/17 06:38:28;;;;;;;;;;;21.60;46.80;;;;;;5094499;28;20431;-45
2022/04/17 06:40:55;;;;;;;;;;;21.70;46.80;;;;;;5094751;28;19924;-45
2022/04/17 06:43:22;;;;;;;;;;;21.70;46.70;;;;;;5093735;28;19924;-44
2022/04/17 06:45:49;;;;;;;;;;;21.70;46.70;;;;;;5076698;28;19974;-44
2022/04/17 06:48:17;;;;;;;;;;;21.70;46.70;;;;;;5095762;28;20318;-44
2022/04/17 06:50:45;;;;;;;;;;;21.70;46.60;;;;;;5094733;28;19947;-44
2022/04/17 06:53:12;;;;;;;;;;;21.80;46.70;;;;;;5093671;28;20024;-49
2022/04/17 06:55:39;;;;;;;;;;;21.80;46.70;;;;;;5094531;28;19924;-44
2022/04/17 06:58:07;;;;;;;;;;;21.80;46.60;;;;;;5093563;28;19928;-45
2022/04/17 07:00:35;;;;;;;;;;;21.80;46.50;;;;;;5094479;28;20333;-47
2022/04/17 07:03:02;;;;;;;;;;;21.80;46.50;;;;;;5094648;28;19974;-44
2022/04/17 07:05:30;;;;;;;;;;;21.80;46.40;;;;;;5094604;28;20008;-46
2022/04/17 07:08:01;;;;;;;;;;;21.90;46.50;;;;;;5094167;28;19924;-44
2022/04/17 07:10:28;;;;;;;;;;;21.90;46.40;;;;;;5094146;28;20391;-52
2022/04/17 07:12:56;;;;;;;;;;;21.90;46.40;;;;;;5094059;28;19924;-52
2022/04/17 07:15:26;;;;;;;;;;;21.90;46.40;;;;;;5075287;28;20015;-53
2022/04/17 07:17:53;;;;;;;;;;;21.90;46.30;;;;;;5094108;28;20007;-53
2022/04/17 07:20:21;;;;;;;;;;;21.90;46.30;;;;;;5093953;28;19928;-52
2022/04/17 07:22:49;;;;;;;;;;;21.90;46.30;;;;;;5093882;28;19978;-50
2022/04/17 07:25:19;;;;;;;;;;;22.00;46.30;;;;;;5094603;28;19978;-48
2022/04/17 07:27:50;;;;;;;;;;;22.00;46.30;;;;;;5093942;28;19927;-49
2022/04/17 07:30:19;;;;;;;;;;;22.00;46.20;;;;;;5093399;28;19924;-47
2022/04/17 07:32:49;;;;;;;;;;;22.00;46.20;;;;;;5093857;28;19924;-52
2022/04/17 07:35:18;;;;;;;;;;;22.00;46.20;;;;;;5094186;28;19931;-51
2022/04/17 07:37:49;;;;;;;;;;;22.00;46.20;;;;;;5094174;28;19928;-53
2022/04/17 07:40:21;;;;;;;;;;;22.00;46.20;;;;;;5094176;28;20330;-51
2022/04/17 07:42:49;;;;;;;;;;;22.00;46.20;;;;;;5094146;28;19963;-48
2022/04/17 07:45:17;;;;;;;;;;;22.00;46.20;;;;;;5093157;28;19931;-50
2022/04/17 07:47:44;;;;;;;;;;;22.00;46.20;;;;;;5093769;28;19924;-52
2022/04/17 07:50:13;;;;;;;;;;;22.00;46.20;;;;;;5093916;28;19981;-45
2022/04/17 07:52:41;;;;;;;;;;;22.00;46.20;;;;;;5094318;28;20364;-51
2022/04/17 07:55:15;;;;;;;;;;;22.00;46.20;;;;;;5093541;28;19924;-50
2022/04/17 07:58:08;;;;;;;;;;;22.00;46.20;;;;;;5093900;28;19979;-45
2022/04/17 08:00:46;;;;;;;;;;;22.00;46.10;;;;;;5092720;28;19924;-49
2022/04/17 08:03:47;;;;;;;;;;;22.00;46.10;;;;;;5093966;28;20011;-45
2022/04/17 08:06:07;;;;;;;;;;;22.00;46.10;;;;;;5095345;28;20376;-50
2022/04/17 08:08:35;;;;;;;;;;;22.00;46.00;;;;;;5097678;28;19967;-51
2022/04/17 08:11:02;;;;;;;;;;;22.00;46.00;;;;;;5097630;28;19973;-46
2022/04/17 08:13:29;;;;;;;;;;;22.10;46.10;;;;;;5097507;28;19928;-52
2022/04/17 08:15:56;;;;;;;;;;;22.10;46.10;;;;;;5096940;28;19924;-47
2022/04/17 08:18:24;;;;;;;;;;;22.00;46.00;;;;;;5097494;28;19923;-44
2022/04/17 08:20:51;;;;;;;;;;;22.10;46.10;;;;;;5097697;28;19957;-52
2022/04/17 08:23:18;;;;;;;;;;;22.10;46.10;;;;;;5097271;28;19930;-46
2022/04/17 08:25:46;;;;;;;;;;;22.10;46.00;;;;;;5097379;28;19924;-50
2022/04/17 08:28:14;;;;;;;;;;;22.10;46.10;;;;;;5097232;28;19969;-50
2022/04/17 08:30:41;;;;;;;;;;;22.10;46.10;;;;;;5096374;28;19990;-46
2022/04/17 08:33:08;;;;;;;;;;;22.10;46.10;;;;;;5097143;28;19924;-44
2022/04/17 08:35:35;;;;;;;;;;;22.10;46.10;;;;;;5097102;28;19924;-44
2022/04/17 08:38:03;;;;;;;;;;;22.10;46.10;;;;;;5097404;28;19928;-46
2022/04/17 08:40:30;;;;;;;;;;;22.10;46.00;;;;;;5097382;28;19928;-44
2022/04/17 08:42:58;;;;;;;;;;;22.10;46.00;;;;;;5097332;28;20268;-46
2022/04/17 08:45:25;;;;;;;;;;;22.10;46.00;;;;;;5078272;28;19924;-44
2022/04/17 08:47:54;;;;;;;;;;;22.10;46.00;;;;;;5096919;28;20402;-44
2022/04/17 08:50:22;;;;;;;;;;;22.10;46.00;;;;;;5097051;28;20441;-46
2022/04/17 08:52:50;;;;;;;;;;;22.10;46.00;;;;;;5097062;28;19927;-44
2022/04/17 08:55:17;;;;;;;;;;;22.10;46.00;;;;;;5096797;28;20384;-45
2022/04/17 08:57:44;;;;;;;;;;;22.10;46.00;;;;;;5096978;28;20337;-44
2022/04/17 09:00:14;;;;;;;;;;;22.10;46.00;;;;;;5096058;28;19985;-46
2022/04/17 09:02:41;;;;;;;;;;;22.10;46.00;;;;;;5096663;28;19928;-44
2022/04/17 09:05:09;;;;;;;;;;;22.10;46.00;;;;;;5096633;28;19924;-45
2022/04/17 09:07:54;;;;;;;;;;;22.10;46.00;;;;;;5096878;28;19928;-47
2022/04/17 09:10:29;;;;;;;;;;;22.10;46.00;;;;;;5096859;28;19967;-45
2022/04/17 09:12:57;;;;;;;;;;;22.10;46.10;;;;;;5096383;28;19969;-46
2022/04/17 09:15:25;;;;;;;;;;;22.10;46.60;;;;;;5095168;28;19927;-45
2022/04/17 09:17:53;;;;;;;;;;;22.10;46.00;;;;;;5096334;28;19928;-44
2022/04/17 09:20:24;;;;;;;;;;;22.10;45.90;;;;;;5096493;28;20361;-47
2022/04/17 09:22:52;;;;;;;;;;;22.10;45.90;;;;;;5096340;28;19924;-48
2022/04/17 09:25:22;;;;;;;;;;;22.10;45.90;;;;;;5096225;28;19971;-47
2022/04/17 09:27:57;;;;;;;;;;;22.20;45.90;;;;;;5096108;28;20405;-44
2022/04/17 09:30:32;;;;;;;;;;;22.20;45.90;;;;;;5095248;28;19924;-45
2022/04/17 09:33:03;;;;;;;;;;;22.20;45.90;;;;;;5096013;28;19924;-46
2022/04/17 09:35:30;;;;;;;;;;;22.20;45.80;;;;;;5096326;28;19928;-47
2022/04/17 09:38:01;;;;;;;;;;;22.20;45.80;;;;;;5095982;28;19924;-48
2022/04/17 09:40:31;;;;;;;;;;;22.30;45.80;;;;;;5078354;28;19924;-46
2022/04/17 09:43:07;;;;;;;;;;;22.30;45.70;;;;;;5095936;28;20413;-48
2022/04/17 09:45:54;;;;;;;;;;;22.30;45.70;;;;;;5095235;28;19924;-45
2022/04/17 09:48:21;;;;;;;;;;;22.30;45.70;;;;;;5096032;28;20011;-45
2022/04/17 09:50:48;;;;;;;;;;;22.30;45.70;;;;;;5078393;28;19924;-48
2022/04/17 09:53:34;;;;;;;;;;;22.40;45.70;;;;;;5095933;28;20318;-47
2022/04/17 09:56:08;;;;;;;;;;;22.40;45.60;;;;;;5095901;28;19924;-49
2022/04/17 09:58:36;;;;;;;;;;;22.40;45.70;;;;;;5095489;28;20032;-46
2022/04/17 10:01:08;;;;;;;;;;;22.40;45.60;;;;;;5094700;28;19924;-47
2022/04/17 10:03:38;;;;;;;;;;;22.40;45.60;;;;;;5095498;28;19924;-47
2022/04/17 10:06:06;;;;;;;;;;;22.40;45.60;;;;;;5096056;28;20322;-46
2022/04/17 10:08:34;;;;;;;;;;;22.40;45.60;;;;;;5095314;28;19925;-47
2022/04/17 10:11:01;;;;;;;;;;;22.40;45.60;;;;;;5095636;28;20332;-46
2022/04/17 10:13:31;;;;;;;;;;;22.30;45.50;;;;;;5095247;28;19924;-52
2022/04/17 10:16:00;;;;;;;;;;;22.40;45.60;;;;;;5094664;28;19924;-48
2022/04/17 10:18:27;;;;;;;;;;;22.30;45.50;;;;;;5095450;28;19924;-52
2022/04/17 10:20:55;;;;;;;;;;;22.40;45.60;;;;;;5095367;28;19937;-52
2022/04/17 10:23:26;;;;;;;;;;;22.30;45.60;;;;;;5094940;28;19924;-46
2022/04/17 10:25:57;;;;;;;;;;;22.40;45.70;;;;;;5095090;28;19924;-50
2022/04/17 10:28:26;;;;;;;;;;;22.40;45.50;;;;;;5094374;28;19924;-45
2022/04/17 10:31:21;;;;;;;;;;;22.40;45.50;;;;;;5093200;28;20198;-52
2022/04/17 10:33:55;;;;;;;;;;;22.50;45.50;;;;;;5088975;28;20341;-53
2022/04/17 10:36:27;;;;;;;;;;;22.50;45.30;;;;;;5095192;28;19934;-53
2022/04/17 10:39:03;;;;;;;;;;;22.50;45.30;;;;;;5095190;28;19992;-52
2022/04/17 10:41:30;;;;;;;;;;;22.60;45.30;;;;;;5095125;28;19924;-49
2022/04/17 10:43:58;;;;;;;;;;;22.60;45.20;;;;;;5095010;28;19951;-52
2022/04/17 10:46:26;;;;;;;;;;;22.60;45.20;;;;;;5093716;28;19977;-52
2022/04/17 10:49:04;;;;;;;;;;;22.70;45.20;;;;;;5094863;28;19967;-51
2022/04/17 10:51:35;;;;;;;;;;;22.60;45.10;;;;;;5094524;28;19927;-50
2022/04/17 10:54:10;;;;;;;;;;;22.70;45.10;;;;;;5094488;28;19981;-50
2022/04/17 10:56:38;;;;;;;;;;;22.70;45.00;;;;;;5095620;28;20330;-52
2022/04/17 10:59:15;;;;;;;;;;;22.70;44.90;;;;;;5094689;28;19928;-52
2022/04/17 11:01:44;;;;;;;;;;;22.70;45.00;;;;;;5093520;28;19931;-52
2022/04/17 11:04:16;;;;;;;;;;;22.70;44.90;;;;;;5094674;28;20014;-53
2022/04/17 11:06:43;;;;;;;;;;;22.70;45.00;;;;;;5094308;28;19931;-48
2022/04/17 11:09:10;;;;;;;;;;;22.70;45.60;;;;;;5094330;28;19928;-50
2022/04/17 11:11:37;;;;;;;;;;;22.60;44.90;;;;;;5094470;28;20052;-52
2022/04/17 11:14:07;;;;;;;;;;;22.70;45.00;;;;;;5094132;28;19924;-51
2022/04/17 11:17:00;;;;;;;;;;;22.70;45.10;;;;;;5093276;28;19946;-51
2022/04/17 11:19:31;;;;;;;;;;;22.70;45.00;;;;;;5091431;28;19924;-47
2022/04/17 11:22:04;;;;;;;;;;;22.70;45.00;;;;;;5093985;28;19950;-53
2022/04/17 11:24:49;;;;;;;;;;;22.70;44.90;;;;;;5094779;28;19973;-46
2022/04/17 11:27:16;;;;;;;;;;;22.70;44.90;;;;;;5093950;28;19950;-46
2022/04/17 11:29:48;;;;;;;;;;;22.70;44.90;;;;;;5094314;28;19924;-47
2022/04/17 11:32:17;;;;;;;;;;;22.70;44.90;;;;;;5093389;28;20326;-53
2022/04/17 11:34:47;;;;;;;;;;;22.70;44.90;;;;;;5094170;28;20315;-50
2022/04/17 11:37:17;;;;;;;;;;;22.70;44.90;;;;;;5093896;28;19977;-50
2022/04/17 11:39:44;;;;;;;;;;;22.70;44.90;;;;;;5093589;28;19977;-51
2022/04/17 11:42:11;;;;;;;;;;;22.70;44.90;;;;;;5093820;28;19928;-45
2022/04/17 11:44:43;;;;;;;;;;;22.70;44.90;;;;;;5093782;28;19924;-46
2022/04/17 11:47:20;;;;;;;;;;;22.70;44.90;;;;;;5092863;28;20380;-49
2022/04/17 11:49:48;;;;;;;;;;;22.80;45.00;;;;;;5093740;28;20449;-49
2022/04/17 11:52:17;;;;;;;;;;;22.70;44.90;;;;;;5093973;28;19978;-46
2022/04/17 11:54:45;;;;;;;;;;;22.70;44.90;;;;;;5093646;28;20001;-45
2022/04/17 11:57:13;;;;;;;;;;;22.70;44.90;;;;;;5093618;28;19978;-46
2022/04/17 11:59:46;;;;;;;;;;;22.70;45.00;;;;;;5093682;28;19924;-45
2022/04/17 12:02:16;;;;;;;;;;;22.70;45.00;;;;;;5092676;28;19928;-45
2022/04/17 12:04:44;;;;;;;;;;;22.70;45.10;;;;;;5093584;28;19970;-44
2022/04/17 12:07:11;;;;;;;;;;;22.70;45.10;;;;;;5093542;28;19924;-44
2022/04/17 12:09:39;;;;;;;;;;;22.70;45.10;;;;;;5093542;28;19924;-49
2022/04/17 12:12:10;;;;;;;;;;;22.70;45.10;;;;;;5093529;28;19954;-46
2022/04/17 12:14:37;;;;;;;;;;;22.70;45.10;;;;;;5093773;28;19924;-47
2022/04/17 12:17:08;;;;;;;;;;;22.60;45.00;;;;;;5092939;28;19924;-45
2022/04/17 12:19:35;;;;;;;;;;;22.70;45.20;;;;;;5093758;28;19982;-45
2022/04/17 12:22:12;;;;;;;;;;;22.60;45.10;;;;;;5093655;28;19982;-47
2022/04/17 12:24:43;;;;;;;;;;;22.60;45.10;;;;;;5093772;28;20334;-45
2022/04/17 12:27:13;;;;;;;;;;;22.70;45.10;;;;;;5093377;28;20367;-45
2022/04/17 12:29:41;;;;;;;;;;;22.60;45.10;;;;;;5093381;28;19967;-52
2022/04/17 12:32:20;;;;;;;;;;;22.60;45.10;;;;;;5092401;28;20414;-47
2022/04/17 12:34:56;;;;;;;;;;;22.70;45.10;;;;;;5094168;28;20280;-48
2022/04/17 12:37:29;;;;;;;;;;;22.70;45.10;;;;;;5093373;28;19924;-48
2022/04/17 12:40:08;;;;;;;;;;;22.60;45.10;;;;;;5093916;28;19973;-45
2022/04/17 12:42:36;;;;;;;;;;;22.60;45.10;;;;;;5093526;28;19924;-53
2022/04/17 12:45:04;;;;;;;;;;;22.60;45.10;;;;;;5093196;28;19928;-45
2022/04/17 12:47:31;;;;;;;;;;;22.60;45.10;;;;;;5092606;28;20264;-50
2022/04/17 12:50:08;;;;;;;;;;;22.60;45.20;;;;;;5093962;28;19924;-44
2022/04/17 12:52:40;;;;;;;;;;;22.60;45.20;;;;;;5097263;28;19931;-45
2022/04/17 12:55:07;;;;;;;;;;;22.60;45.30;;;;;;5097069;28;20265;-44
2022/04/17 12:57:34;;;;;;;;;;;22.60;45.30;;;;;;5096656;28;20394;-48
2022/04/17 13:00:13;;;;;;;;;;;22.60;45.30;;;;;;5096780;28;19954;-47
2022/04/17 13:02:40;;;;;;;;;;;22.60;45.20;;;;;;5095861;28;19931;-44
2022/04/17 13:05:07;;;;;;;;;;;22.70;45.20;;;;;;5097002;28;20023;-44
2022/04/17 13:07:35;;;;;;;;;;;22.70;45.10;;;;;;5097504;28;20314;-48
2022/04/17 13:10:04;;;;;;;;;;;22.70;45.00;;;;;;5096881;28;19996;-47
2022/04/17 13:12:46;;;;;;;;;;;22.70;45.00;;;;;;5096843;28;20033;-47
2022/04/17 13:15:15;;;;;;;;;;;22.70;44.90;;;;;;5096438;28;20377;-48
2022/04/17 13:17:51;;;;;;;;;;;22.80;45.00;;;;;;5096067;28;19981;-45
2022/04/17 13:20:19;;;;;;;;;;;22.80;44.90;;;;;;5096634;28;19924;-45
2022/04/17 13:22:47;;;;;;;;;;;22.80;45.00;;;;;;5096084;28;19930;-46
2022/04/17 13:25:15;;;;;;;;;;;22.70;44.90;;;;;;5096295;28;19924;-44
2022/04/17 13:27:43;;;;;;;;;;;22.80;44.90;;;;;;5096749;28;19973;-44
2022/04/17 13:30:10;;;;;;;;;;;22.70;44.90;;;;;;5096504;28;19977;-45
2022/04/17 13:32:37;;;;;;;;;;;22.70;44.90;;;;;;5095554;28;20019;-45
2022/04/17 13:35:08;;;;;;;;;;;22.70;45.00;;;;;;5096014;28;19931;-44
2022/04/17 13:40:30;;;;;;;;;;;22.70;45.10;;;;;;5033601;28;19929;-44
2022/04/17 13:42:57;;;;;;;;;;;22.70;45.10;;;;;;5033772;28;20023;-49
2022/04/17 13:45:25;;;;;;;;;;;22.60;45.10;;;;;;5033796;28;19936;-54
2022/04/17 13:47:52;;;;;;;;;;;22.60;45.10;;;;;;5032684;28;19925;-53
2022/04/17 13:50:19;;;;;;;;;;;22.60;45.20;;;;;;5033394;28;20368;-53
2022/04/17 13:52:46;;;;;;;;;;;22.50;45.10;;;;;;5033516;28;19925;-49
2022/04/17 13:55:15;;;;;;;;;;;22.60;45.30;;;;;;5033414;28;19925;-48
2022/04/17 13:57:42;;;;;;;;;;;22.60;45.30;;;;;;5033294;28;20534;-50
2022/04/17 14:00:09;;;;;;;;;;;22.50;45.20;;;;;;5033450;28;19925;-49
2022/04/17 14:02:36;;;;;;;;;;;22.60;45.30;;;;;;5031884;28;19925;-49
2022/04/17 14:05:04;;;;;;;;;;;22.60;45.30;;;;;;5033483;28;19955;-47
2022/04/17 14:07:31;;;;;;;;;;;22.60;45.20;;;;;;5033271;28;19925;-51
2022/04/17 14:10:00;;;;;;;;;;;22.60;45.20;;;;;;5033254;28;19949;-50
2022/04/17 14:12:28;;;;;;;;;;;22.60;45.10;;;;;;5033196;28;20344;-52
2022/04/17 14:14:56;;;;;;;;;;;22.60;45.10;;;;;;5033002;28;20340;-51
2022/04/17 14:17:24;;;;;;;;;;;22.70;45.20;;;;;;5066152;28;20068;-53
2022/04/17 14:19:51;;;;;;;;;;;22.60;45.10;;;;;;5094613;28;19925;-45
2022/04/17 14:22:23;;;;;;;;;;;22.60;45.10;;;;;;5095172;28;20357;-47
2022/04/17 14:24:51;;;;;;;;;;;22.60;45.10;;;;;;5095423;28;19931;-45
2022/04/17 14:27:19;;;;;;;;;;;22.60;45.20;;;;;;5095004;28;19931;-44
2022/04/17 14:29:47;;;;;;;;;;;22.60;45.20;;;;;;5095279;28;19928;-45
2022/04/17 14:32:14;;;;;;;;;;;22.60;45.30;;;;;;5095248;28;19970;-44
2022/04/17 14:34:41;;;;;;;;;;;22.50;45.20;;;;;;5078045;28;20331;-47
2022/04/17 14:37:08;;;;;;;;;;;22.50;45.30;;;;;;5074931;28;19978;-47
2022/04/17 14:39:35;;;;;;;;;;;22.50;45.90;;;;;;5074548;28;19924;-47
2022/04/17 14:42:02;;;;;;;;;;;22.50;45.30;;;;;;5074807;28;19986;-48
2022/04/17 14:44:29;;;;;;;;;;;22.50;45.30;;;;;;5074456;28;19924;-49